Pine Bluff, AR (71601)

12:11 PM CDT on September 30, 2016 (GMT -0500)
Pine Bluff | | Change Station

Elev 253 ft 34.19 °N, 92.03 °W | Updated 23 seconds ago

Clear
Clear
78.4 °F
Feels Like 80 °F
N
3.2
Wind Variable Wind from NNE

Today
High -- | Low -- °F
--% Chance of Precip.
Yesterday
High -- | Low -- °F
Precip. -- in
Pressure 30.14 in
Visibility 10.0 miles
Clouds Clear
Heat Index 80 °F
Dew Point 60 °F
Humidity 53%
Rainfall 0.00 in
Snow Depth Not available.
7:01 AM 6:52 PM
Waning Crescent, 0% visible
METAR KPBF 301653Z AUTO 32007KT 10SM CLR 23/13 A3014 RMK AO2 SLP206 T02280133
Pressure 30.14 in
Visibility 10.0 miles
Clouds Clear
Heat Index 80 °F
Dew Point 60 °F
Humidity 53%
Rainfall 0.00 in
Snow Depth Not available.
7:01 AM 6:52 PM
Waning Crescent, 0% visible
METAR KPBF 301653Z AUTO 32007KT 10SM CLR 23/13 A3014 RMK AO2 SLP206 T02280133

10-Day Weather Forecast

Almanac

Astronomy

Sep. 30, 2016 Rise Set
Actual Time
Civil Twilight
Nautical Twilight
Astronomical Twilight
Moon
Length of Visible Light
Length of Day
Tomorrow will be .
, % of the Moon is Illuminated

Today's Extremes

State Highs State Lows

Community

WunderPhotos

Upload Photos

1,942,752 photos uploaded!

WunderBlog® & News

Nearby

Air Quality

  Air Quality AQ Index Pollutant
Not available.

Snow Depth

Station Depth Elevation

Earthquake Activity

City Distance Mag. Time & Date
Minimum magnitude displayed is 2.5.

Coastal Water Temperatures

Place Temperature

Stations

Nearby Weather Stations

Station Location Temp. Windchill Dew Point Humidity Wind Precip. Elev Updated Type
                   

Watches & Warnings

There are currently no watches in effect.